EGGPEGNT

Guest
Details From EGGP - Liverpool John Lennon
To EGNT - Newcastle
Flight Number -
Tags Routegen
Created
Modified
Stats Distance 110 nm / 204 km
Max Altitude 0 ft / 0 m
Waypoints 2
Social Downloads 7
Likes 0
Share VATSIM

Download

Looking for another format? Having issues loading an existing format? Contact us
Advertisement - Login to hide

Notes

None

Route

EGGP EGNT

ID Type Via Altitude (ft/m) Position (lat/lon) Dist (leg/tot) Name
O EGGP APT - 0 / 0 53.33288 / -2.86602 - / 0 nm
O EGNT APT - 0 / 0 55.03353 / -1.70634 109 / 109 nm

Altitude Profile

Advertisement - Login to hide

EGGP

Details ICAO EGGP (LPL)
Name Liverpool John Lennon
Region United Kingdom
Timezone Europe/London (UTC+1.0)
Stats Elevation 81 ft / 25 m (AMSL)
Location 53.333600° -2.849780°
Runways 1
Magnetic Variation 1.396° W

METAR

EGGP 190820Z VRB03KT 9999 FEW012 12/12 Q1032

Decode

TAF

TAF EGGP 190454Z 1906/2006 17002KT 9999 FEW040 PROB30 1920/2006 8000 BECMG 2001/2004 14012KT

Decode

Departure Runways

ID Width Length Bearing (true/mag) Surface Threshold Overrun Markings Lighting
09 148 ft / 45 m 7,478 ft / 2,279 m 85.58° / 86.97° ASPHALT 194 ft / 59 m 0 ft / 0 m UK-PREC-APP CENTERLINE EDGE THRESHOLD CALVERT
27 148 ft / 45 m 7,478 ft / 2,279 m 265.61° / 267.00° ASPHALT 0 ft / 0 m 82 ft / 25 m UK-PREC-APP CENTERLINE EDGE THRESHOLD CALVERT TDZ

EGNT

Details ICAO EGNT (NCL)
Name Newcastle
Region United Kingdom
Timezone Europe/London (UTC+1.0)
Stats Elevation 266 ft / 81 m (AMSL)
Location 55.037900° -1.689790°
Runways 1
Magnetic Variation 1.190° W

METAR

EGNT 190820Z 27009KT 9999 SCT005 13/13 Q1031

Decode

TAF

TAF AMD EGNT 190626Z 1906/2006 25005KT 8000 BKN004 BECMG 1907/1910 9999 FEW040 TEMPO 1920/2006 6000 PROB40 2000/2006 3000 BR

Decode

Destination Runways

ID Width Length Bearing (true/mag) Surface Threshold Overrun Markings Lighting
07 150 ft / 46 m 7,626 ft / 2,325 m 65.14° / 66.33° ASPHALT 394 ft / 120 m 95 ft / 29 m PREC-APP CENTERLINE EDGE THRESHOLD CALVERT TDZ
25 150 ft / 46 m 7,626 ft / 2,325 m 245.16° / 246.35° ASPHALT 449 ft / 137 m 49 ft / 15 m PREC-APP CENTERLINE EDGE THRESHOLD CALVERT TDZ

Approach Navaids

Runway Type Ident Frequency Range Bearing (true/mag) Slope Elevation
07 DME INC 111.50 MHz 18 nm / 33 km - - 256 ft / 78 m (AMSL)
07 GS INC 111.50 MHz 10 nm / 19 km 65.30° / 66.49 ° 3.00° 297 ft / 91 m (AMSL)
07 LOC-ILS INC 111.50 MHz 18 nm / 33 km 65.18° / 66.37 ° - 297 ft / 91 m (AMSL)
25 LOC-ILS INWC 111.50 MHz 18 nm / 33 km 245.12° / 246.31 ° - 279 ft / 85 m (AMSL)
25 GS INWC 111.50 MHz 10 nm / 19 km 245.30° / 246.49 ° 3.00° 297 ft / 91 m (AMSL)
25 DME INWC 111.50 MHz 18 nm / 33 km - - 256 ft / 78 m (AMSL)

Popular Alternatives